createdAt,value
2022-09-21T00:01:15.017Z,-60
2022-09-21T00:03:43.327Z,-60
2022-09-21T00:06:20.010Z,-59
2022-09-21T00:08:47.451Z,-60
2022-09-21T00:11:26.147Z,-59
2022-09-21T00:13:58.074Z,-59
2022-09-21T00:16:24.671Z,-60
2022-09-21T00:18:51.281Z,-60
2022-09-21T00:21:18.162Z,-60
2022-09-21T00:23:45.121Z,-60
2022-09-21T00:26:23.455Z,-60
2022-09-21T00:28:55.177Z,-59
2022-09-21T00:31:22.428Z,-60
2022-09-21T00:33:51.088Z,-60
2022-09-21T00:36:19.775Z,-60
2022-09-21T00:38:51.223Z,-59
2022-09-21T00:41:17.953Z,-59
2022-09-21T00:44:18.406Z,-60
2022-09-21T00:46:46.748Z,-59
2022-09-21T00:49:14.259Z,-59
2022-09-21T00:51:42.105Z,-60
2022-09-21T00:54:15.057Z,-60
2022-09-21T00:56:44.108Z,-60
2022-09-21T00:59:14.701Z,-60
2022-09-21T01:01:42.964Z,-60
2022-09-21T01:04:10.630Z,-61
2022-09-21T01:06:38.697Z,-59
2022-09-21T01:09:05.488Z,-60
2022-09-21T01:12:05.811Z,-60
2022-09-21T01:14:41.396Z,-59
2022-09-21T01:17:40.911Z,-59
2022-09-21T01:20:20.054Z,-59
2022-09-21T01:22:55.469Z,-60
2022-09-21T01:25:38.821Z,-59
2022-09-21T01:28:43.359Z,-60
2022-09-21T01:31:20.704Z,-59
2022-09-21T01:33:54.541Z,-59
2022-09-21T01:36:26.086Z,-59
2022-09-21T01:38:56.595Z,-59
2022-09-21T01:41:26.791Z,-59
2022-09-21T01:43:57.529Z,-60
2022-09-21T01:46:28.962Z,-60
2022-09-21T01:49:00.841Z,-60
2022-09-21T01:51:28.727Z,-59
2022-09-21T01:54:04.847Z,-59
2022-09-21T01:56:41.621Z,-60
2022-09-21T01:59:25.136Z,-59
2022-09-21T02:01:57.138Z,-59
2022-09-21T02:04:23.743Z,-59
2022-09-21T02:06:51.153Z,-59
2022-09-21T02:09:18.108Z,-59
2022-09-21T02:11:44.895Z,-59
2022-09-21T02:14:15.133Z,-59
2022-09-21T02:17:19.355Z,-59
2022-09-21T02:19:57.870Z,-59
2022-09-21T02:22:54.812Z,-59
2022-09-21T02:25:32.655Z,-59
2022-09-21T02:28:08.278Z,-60
2022-09-21T02:30:37.133Z,-59
2022-09-21T02:33:15.975Z,-59
2022-09-21T02:35:46.046Z,-59
2022-09-21T02:38:40.186Z,-59
2022-09-21T02:41:16.920Z,-60
2022-09-21T02:43:52.227Z,-59
2022-09-21T02:46:28.994Z,-59
2022-09-21T02:49:01.233Z,-60
2022-09-21T02:51:38.749Z,-59
2022-09-21T02:54:08.500Z,-59
2022-09-21T02:56:36.825Z,-59
2022-09-21T02:59:05.335Z,-60
2022-09-21T03:01:33.025Z,-60
2022-09-21T03:03:59.727Z,-59
2022-09-21T03:06:26.157Z,-59
2022-09-21T03:08:52.809Z,-59
2022-09-21T03:11:20.503Z,-59
2022-09-21T03:13:46.885Z,-59
2022-09-21T03:16:13.636Z,-60
2022-09-21T03:18:44.307Z,-59
2022-09-21T03:21:12.177Z,-59
2022-09-21T03:23:39.526Z,-59
2022-09-21T03:26:06.163Z,-59
2022-09-21T03:28:32.510Z,-59
2022-09-21T03:30:58.913Z,-59
2022-09-21T03:33:25.474Z,-59
2022-09-21T03:35:52.594Z,-59
2022-09-21T03:38:21.066Z,-59
2022-09-21T03:40:49.014Z,-59
2022-09-21T03:43:15.940Z,-59
2022-09-21T03:45:42.653Z,-59
2022-09-21T03:48:10.443Z,-59
2022-09-21T03:50:37.761Z,-60
2022-09-21T03:53:04.633Z,-59
2022-09-21T03:55:31.576Z,-59
2022-09-21T03:57:58.018Z,-59
2022-09-21T04:00:24.413Z,-59
2022-09-21T04:02:50.796Z,-59
2022-09-21T04:05:17.331Z,-59
2022-09-21T04:07:45.779Z,-59
2022-09-21T04:10:17.738Z,-59
2022-09-21T04:12:44.572Z,-61
2022-09-21T04:15:13.930Z,-61
2022-09-21T04:17:40.914Z,-59
2022-09-21T04:20:08.833Z,-59
2022-09-21T04:22:39.960Z,-59
2022-09-21T04:25:10.704Z,-60
2022-09-21T04:27:37.098Z,-60
2022-09-21T04:30:03.854Z,-60
2022-09-21T04:32:30.207Z,-60
2022-09-21T04:34:56.506Z,-59
2022-09-21T04:37:22.873Z,-59
2022-09-21T04:39:49.548Z,-59
2022-09-21T04:42:15.919Z,-60
2022-09-21T04:44:42.229Z,-59
2022-09-21T04:47:08.664Z,-60
2022-09-21T04:49:35.052Z,-60
2022-09-21T04:52:01.793Z,-59
2022-09-21T04:54:28.166Z,-59
2022-09-21T04:56:54.549Z,-59
2022-09-21T04:59:20.949Z,-59
2022-09-21T05:01:47.373Z,-59
2022-09-21T05:04:13.722Z,-59
2022-09-21T05:06:40.054Z,-59
2022-09-21T05:09:25.117Z,-59
2022-09-21T05:11:51.945Z,-61
2022-09-21T05:14:18.381Z,-59
2022-09-21T05:16:44.993Z,-59
2022-09-21T05:19:11.317Z,-60
2022-09-21T05:21:37.718Z,-59
2022-09-21T05:24:04.331Z,-59
2022-09-21T05:26:30.687Z,-60
2022-09-21T05:28:57.362Z,-60
2022-09-21T05:31:30.073Z,-60
2022-09-21T05:34:12.813Z,-60
2022-09-21T05:36:52.238Z,-60
2022-09-21T05:39:18.873Z,-60
2022-09-21T05:41:45.565Z,-60
2022-09-21T05:44:14.455Z,-60
2022-09-21T05:46:56.372Z,-60
2022-09-21T05:49:45.583Z,-60
2022-09-21T05:52:27.476Z,-59
2022-09-21T05:55:06.369Z,-62
2022-09-21T05:57:51.846Z,-63
2022-09-21T06:00:20.173Z,-62
2022-09-21T06:03:01.745Z,-64
2022-09-21T06:05:28.257Z,-63
2022-09-21T06:07:54.717Z,-62
2022-09-21T06:10:21.521Z,-63
2022-09-21T06:12:47.916Z,-63
2022-09-21T06:15:15.078Z,-62
2022-09-21T06:17:41.843Z,-59
2022-09-21T06:20:08.824Z,-60
2022-09-21T06:22:35.565Z,-59
2022-09-21T06:25:02.052Z,-59
2022-09-21T06:27:29.120Z,-59
2022-09-21T06:29:55.638Z,-59
2022-09-21T06:32:21.981Z,-59
2022-09-21T06:34:49.812Z,-61
2022-09-21T06:37:16.513Z,-61
2022-09-21T06:39:42.807Z,-61
2022-09-21T06:42:09.190Z,-61
2022-09-21T06:44:35.514Z,-61
2022-09-21T06:47:01.895Z,-61
2022-09-21T06:49:28.748Z,-61
2022-09-21T06:51:56.013Z,-61
2022-09-21T06:54:22.615Z,-61
2022-09-21T06:56:48.952Z,-61
2022-09-21T06:59:15.267Z,-61
2022-09-21T07:01:41.668Z,-61
2022-09-21T07:04:09.351Z,-61
2022-09-21T07:06:35.959Z,-61
2022-09-21T07:11:49.696Z,-61
2022-09-21T07:14:16.022Z,-61
2022-09-21T07:16:43.337Z,-61
2022-09-21T07:19:11.713Z,-61
2022-09-21T07:21:38.692Z,-61
2022-09-21T07:24:09.596Z,-61
2022-09-21T07:26:39.131Z,-61
2022-09-21T07:29:05.710Z,-61
2022-09-21T07:31:32.162Z,-61
2022-09-21T07:33:59.296Z,-61
2022-09-21T07:36:25.726Z,-61
2022-09-21T07:38:53.925Z,-61
2022-09-21T07:41:20.897Z,-61
2022-09-21T07:43:47.416Z,-61
2022-09-21T07:46:14.906Z,-61
2022-09-21T07:48:41.776Z,-61
2022-09-21T07:51:11.239Z,-59
2022-09-21T07:53:39.299Z,-59
2022-09-21T07:56:11.542Z,-60
2022-09-21T07:58:57.264Z,-59
2022-09-21T08:01:24.990Z,-59
2022-09-21T08:03:53.473Z,-59
2022-09-21T08:06:21.065Z,-59
2022-09-21T08:08:48.213Z,-59
2022-09-21T08:11:21.248Z,-59
2022-09-21T08:13:48.725Z,-59
2022-09-21T08:16:15.259Z,-59
2022-09-21T08:18:41.863Z,-59
2022-09-21T08:21:12.139Z,-60
2022-09-21T08:23:42.997Z,-59
2022-09-21T08:26:19.335Z,-59
2022-09-21T08:28:49.170Z,-59
2022-09-21T08:31:18.576Z,-59
2022-09-21T08:33:45.957Z,-60
2022-09-21T08:36:12.482Z,-60
2022-09-21T08:38:39.870Z,-60
2022-09-21T08:41:41.702Z,-59
2022-09-21T08:44:17.525Z,-59
2022-09-21T08:46:46.515Z,-59
2022-09-21T08:49:24.856Z,-59
2022-09-21T08:52:03.987Z,-60
2022-09-21T08:54:42.370Z,-59
2022-09-21T08:57:15.388Z,-59
2022-09-21T08:59:45.497Z,-60
2022-09-21T09:02:27.225Z,-60
2022-09-21T09:05:10.843Z,-60
2022-09-21T09:08:19.413Z,-59
2022-09-21T09:10:55.551Z,-60
2022-09-21T09:13:45.508Z,-60
2022-09-21T09:16:36.170Z,-60
2022-09-21T09:19:17.771Z,-61
2022-09-21T09:21:45.069Z,-62
2022-09-21T09:24:32.716Z,-60
2022-09-21T09:27:28.524Z,-61
2022-09-21T09:30:17.781Z,-60
2022-09-21T09:32:54.457Z,-61
2022-09-21T09:35:52.436Z,-60
2022-09-21T09:38:28.805Z,-62
2022-09-21T09:41:08.902Z,-63
2022-09-21T09:43:38.237Z,-62
2022-09-21T09:46:36.853Z,-62
2022-09-21T09:49:22.629Z,-62
2022-09-21T09:51:49.179Z,-62
2022-09-21T09:54:17.734Z,-62
2022-09-21T09:56:44.726Z,-62
2022-09-21T09:59:36.839Z,-62
2022-09-21T10:02:07.945Z,-62
2022-09-21T10:04:36.947Z,-62
2022-09-21T10:07:03.400Z,-60
2022-09-21T10:09:34.068Z,-60
2022-09-21T10:12:08.089Z,-61
2022-09-21T10:14:36.617Z,-59
2022-09-21T10:17:08.071Z,-60
2022-09-21T10:19:34.934Z,-60
2022-09-21T10:22:04.041Z,-60
2022-09-21T10:24:37.447Z,-60
2022-09-21T10:27:06.276Z,-60
2022-09-21T10:29:40.847Z,-60
2022-09-21T10:32:14.719Z,-62
2022-09-21T10:34:59.547Z,-62
2022-09-21T10:37:35.641Z,-62
2022-09-21T10:40:02.099Z,-63
2022-09-21T10:42:41.598Z,-62
2022-09-21T10:45:25.176Z,-63
2022-09-21T10:47:58.341Z,-62
2022-09-21T10:50:25.267Z,-62
2022-09-21T10:52:57.538Z,-62
2022-09-21T10:55:25.183Z,-62
2022-09-21T10:57:52.798Z,-60
2022-09-21T11:00:22.079Z,-60
2022-09-21T11:02:48.645Z,-60
2022-09-21T11:05:17.677Z,-60
2022-09-21T11:08:04.011Z,-60
2022-09-21T11:11:07.508Z,-60
2022-09-21T11:13:49.719Z,-60
2022-09-21T11:16:28.191Z,-61
2022-09-21T11:19:13.128Z,-60
2022-09-21T11:22:06.857Z,-61
2022-09-21T11:25:04.735Z,-60
2022-09-21T11:27:43.966Z,-60
2022-09-21T11:30:13.543Z,-61
2022-09-21T11:32:59.128Z,-61
2022-09-21T11:35:37.658Z,-63
2022-09-21T11:38:34.554Z,-60
2022-09-21T11:41:23.846Z,-60
2022-09-21T11:44:17.151Z,-61
2022-09-21T11:46:59.833Z,-63
2022-09-21T11:50:03.070Z,-60
2022-09-21T11:53:00.577Z,-63
2022-09-21T11:55:47.443Z,-62
2022-09-21T11:58:20.654Z,-63
2022-09-21T12:01:05.796Z,-64
2022-09-21T12:03:35.529Z,-63
2022-09-21T12:06:21.161Z,-64
2022-09-21T12:08:53.615Z,-62
2022-09-21T12:11:39.113Z,-65
2022-09-21T12:14:19.093Z,-63
2022-09-21T12:16:55.790Z,-63
2022-09-21T12:19:45.761Z,-64
2022-09-21T12:22:22.507Z,-60
2022-09-21T12:24:55.926Z,-62
2022-09-21T12:27:31.454Z,-63
2022-09-21T12:30:17.510Z,-64
2022-09-21T12:32:50.030Z,-61
2022-09-21T12:35:23.435Z,-62
2022-09-21T12:38:06.878Z,-62
2022-09-21T12:40:38.517Z,-61
2022-09-21T12:43:28.362Z,-64
2022-09-21T12:46:25.807Z,-61
2022-09-21T12:48:52.887Z,-61
2022-09-21T12:51:35.474Z,-61
2022-09-21T12:54:12.262Z,-61
2022-09-21T12:56:49.900Z,-62
2022-09-21T12:59:30.253Z,-61
2022-09-21T13:02:12.177Z,-62
2022-09-21T13:05:08.000Z,-62
2022-09-21T13:08:09.575Z,-62
2022-09-21T13:10:49.166Z,-61
2022-09-21T13:13:45.706Z,-64
2022-09-21T13:16:38.819Z,-60
2022-09-21T13:19:21.425Z,-61
2022-09-21T13:22:21.874Z,-62
2022-09-21T13:25:27.450Z,-63
2022-09-21T13:28:09.028Z,-63
2022-09-21T13:30:49.210Z,-63
2022-09-21T13:33:18.714Z,-62
2022-09-21T13:35:47.933Z,-62
2022-09-21T13:38:27.937Z,-62
2022-09-21T13:41:00.510Z,-66
2022-09-21T13:43:53.298Z,-63
2022-09-21T13:46:34.687Z,-63
2022-09-21T13:49:16.361Z,-64
2022-09-21T13:52:27.025Z,-61
2022-09-21T13:54:58.153Z,-63
2022-09-21T13:57:39.787Z,-62
2022-09-21T14:00:12.567Z,-62
2022-09-21T14:02:44.889Z,-62
2022-09-21T14:05:46.322Z,-61
2022-09-21T14:08:15.666Z,-62
2022-09-21T14:11:07.898Z,-63
2022-09-21T14:13:41.978Z,-63
2022-09-21T14:16:37.263Z,-62
2022-09-21T14:19:23.694Z,-62
2022-09-21T14:22:05.356Z,-63
2022-09-21T14:24:45.582Z,-63
2022-09-21T14:27:30.417Z,-64
2022-09-21T14:30:07.297Z,-64
2022-09-21T14:32:47.234Z,-63
2022-09-21T14:35:18.668Z,-63
2022-09-21T14:37:52.076Z,-62
2022-09-21T14:40:24.568Z,-63
2022-09-21T14:42:55.447Z,-62
2022-09-21T14:46:12.940Z,-62
2022-09-21T14:49:00.827Z,-62
2022-09-21T14:51:36.416Z,-64
2022-09-21T14:54:21.214Z,-64
2022-09-21T14:57:08.531Z,-62
2022-09-21T14:59:55.934Z,-62
2022-09-21T15:02:26.774Z,-62
2022-09-21T15:05:08.711Z,-63
2022-09-21T15:08:04.695Z,-64
2022-09-21T15:10:55.548Z,-61
2022-09-21T15:13:36.897Z,-64
2022-09-21T15:16:09.306Z,-62
2022-09-21T15:18:42.405Z,-64
2022-09-21T15:21:21.919Z,-64
2022-09-21T15:23:50.495Z,-61
2022-09-21T15:26:23.784Z,-61
2022-09-21T15:29:09.338Z,-62
2022-09-21T15:31:41.928Z,-62
2022-09-21T15:34:11.082Z,-63
2022-09-21T15:36:40.511Z,-61
2022-09-21T15:39:20.526Z,-61
2022-09-21T15:41:48.868Z,-61
2022-09-21T15:44:17.998Z,-63
2022-09-21T15:46:50.358Z,-65
2022-09-21T15:49:22.138Z,-63
2022-09-21T15:52:25.476Z,-63
2022-09-21T15:54:59.666Z,-62
2022-09-21T15:57:39.034Z,-63
2022-09-21T16:00:08.379Z,-63
2022-09-21T16:02:39.514Z,-64
2022-09-21T16:05:14.428Z,-64
2022-09-21T16:07:41.430Z,-65
2022-09-21T16:10:29.550Z,-63
2022-09-21T16:13:41.613Z,-61
2022-09-21T16:16:11.960Z,-61
2022-09-21T16:18:55.852Z,-61
2022-09-21T16:21:27.652Z,-63
2022-09-21T16:23:58.864Z,-63
2022-09-21T16:26:30.756Z,-63
2022-09-21T16:29:16.711Z,-63
2022-09-21T16:31:49.080Z,-62
2022-09-21T16:34:33.158Z,-63
2022-09-21T16:37:02.119Z,-64
2022-09-21T16:39:29.137Z,-63
2022-09-21T16:42:00.867Z,-62
2022-09-21T16:44:30.786Z,-62
2022-09-21T16:47:00.378Z,-61
2022-09-21T16:49:31.205Z,-62
2022-09-21T16:51:58.194Z,-61
2022-09-21T16:54:25.984Z,-63
2022-09-21T16:56:54.228Z,-62
2022-09-21T16:59:23.161Z,-61
2022-09-21T17:01:56.103Z,-62
2022-09-21T17:04:25.718Z,-61
2022-09-21T17:06:53.217Z,-61
2022-09-21T17:09:28.384Z,-61
2022-09-21T17:11:56.290Z,-61
2022-09-21T17:14:23.988Z,-62
2022-09-21T17:16:58.626Z,-63
2022-09-21T17:19:25.297Z,-61
2022-09-21T17:21:51.722Z,-60
2022-09-21T17:24:38.938Z,-62
2022-09-21T17:27:04.375Z,-61
2022-09-21T17:29:31.117Z,-61
2022-09-21T17:31:58.570Z,-61
2022-09-21T17:34:27.449Z,-61
2022-09-21T17:36:54.898Z,-61
2022-09-21T17:39:22.794Z,-61
2022-09-21T17:41:58.001Z,-62
2022-09-21T17:44:34.152Z,-62
2022-09-21T17:47:05.198Z,-61
2022-09-21T17:49:31.691Z,-62
2022-09-21T17:52:16.903Z,-62
2022-09-21T17:54:43.453Z,-62
2022-09-21T17:57:40.341Z,-61
2022-09-21T18:00:23.932Z,-61
2022-09-21T18:02:52.285Z,-62
2022-09-21T18:05:27.455Z,-61
2022-09-21T18:07:54.186Z,-61
2022-09-21T18:10:22.486Z,-61
2022-09-21T18:13:24.438Z,-63
2022-09-21T18:16:07.347Z,-62
2022-09-21T18:18:59.561Z,-61
2022-09-21T18:21:27.815Z,-62
2022-09-21T18:24:33.348Z,-64
2022-09-21T18:27:00.760Z,-62
2022-09-21T18:29:41.132Z,-61
2022-09-21T18:32:28.966Z,-61
2022-09-21T18:35:01.274Z,-62
2022-09-21T18:38:04.917Z,-62
2022-09-21T18:40:44.457Z,-63
2022-09-21T18:43:44.713Z,-62
2022-09-21T18:46:28.777Z,-61
2022-09-21T18:49:23.676Z,-63
2022-09-21T18:52:05.080Z,-62
2022-09-21T18:54:31.654Z,-63
2022-09-21T18:56:58.869Z,-62
2022-09-21T18:59:29.627Z,-61
2022-09-21T19:01:59.659Z,-62
2022-09-21T19:04:26.573Z,-61
2022-09-21T19:07:04.594Z,-62
2022-09-21T19:10:03.812Z,-60
2022-09-21T19:12:45.314Z,-62
2022-09-21T19:15:27.523Z,-61
2022-09-21T19:18:21.458Z,-61
2022-09-21T19:21:00.605Z,-61
2022-09-21T19:23:55.729Z,-61
2022-09-21T19:26:47.058Z,-63
2022-09-21T19:29:29.761Z,-61
2022-09-21T19:31:56.205Z,-61
2022-09-21T19:34:22.789Z,-61
2022-09-21T19:36:49.313Z,-61
2022-09-21T19:39:16.178Z,-61
2022-09-21T19:41:54.678Z,-61
2022-09-21T19:44:41.939Z,-63
2022-09-21T19:47:22.845Z,-61
2022-09-21T19:49:54.322Z,-61
2022-09-21T19:52:29.226Z,-61
2022-09-21T19:55:14.442Z,-60
2022-09-21T19:57:59.614Z,-61
2022-09-21T20:00:26.313Z,-65
2022-09-21T20:02:58.513Z,-65
2022-09-21T20:05:34.223Z,-63
2022-09-21T20:08:18.956Z,-63
2022-09-21T20:11:13.026Z,-63
2022-09-21T20:14:07.050Z,-63
2022-09-21T20:16:40.147Z,-63
2022-09-21T20:19:28.246Z,-63
2022-09-21T20:22:04.795Z,-63
2022-09-21T20:25:07.421Z,-62
2022-09-21T20:27:44.147Z,-63
2022-09-21T20:30:13.233Z,-62
2022-09-21T20:32:43.605Z,-63
2022-09-21T20:35:21.898Z,-63
2022-09-21T20:37:48.655Z,-62
2022-09-21T20:40:15.543Z,-62
2022-09-21T20:42:42.445Z,-62
2022-09-21T20:45:10.574Z,-62
2022-09-21T20:47:37.568Z,-62
2022-09-21T20:50:04.813Z,-62
2022-09-21T20:52:31.149Z,-62
2022-09-21T20:54:57.482Z,-62
2022-09-21T20:57:24.186Z,-62
2022-09-21T20:59:50.498Z,-62
2022-09-21T21:02:16.856Z,-62
2022-09-21T21:04:43.254Z,-62
2022-09-21T21:07:10.064Z,-62
2022-09-21T21:09:36.430Z,-62
2022-09-21T21:12:02.873Z,-62
2022-09-21T21:14:29.892Z,-60
2022-09-21T21:16:56.412Z,-60
2022-09-21T21:19:23.215Z,-60
2022-09-21T21:21:49.549Z,-60
2022-09-21T21:24:34.765Z,-60
2022-09-21T21:27:02.824Z,-60
2022-09-21T21:29:30.678Z,-60
2022-09-21T21:31:57.187Z,-59
2022-09-21T21:34:23.650Z,-59
2022-09-21T21:36:50.288Z,-60
2022-09-21T21:39:16.622Z,-60
2022-09-21T21:41:43.585Z,-60
2022-09-21T21:44:11.383Z,-59
2022-09-21T21:46:37.798Z,-59
2022-09-21T21:49:05.182Z,-60
2022-09-21T21:51:31.605Z,-60
2022-09-21T21:53:58.066Z,-59
2022-09-21T21:56:24.619Z,-60
2022-09-21T21:58:55.125Z,-60
2022-09-21T22:01:24.471Z,-59
2022-09-21T22:03:56.071Z,-60
2022-09-21T22:06:23.446Z,-60
2022-09-21T22:08:51.441Z,-60
2022-09-21T22:11:19.857Z,-60
2022-09-21T22:13:46.937Z,-60
2022-09-21T22:16:18.844Z,-59
2022-09-21T22:18:46.212Z,-60
2022-09-21T22:21:17.939Z,-60
2022-09-21T22:23:44.318Z,-59
2022-09-21T22:26:15.758Z,-60
2022-09-21T22:28:44.679Z,-60
2022-09-21T22:31:19.445Z,-60
2022-09-21T22:33:46.534Z,-60
2022-09-21T22:36:18.750Z,-60
2022-09-21T22:38:46.201Z,-60
2022-09-21T22:41:17.088Z,-60
2022-09-21T22:43:44.906Z,-60
2022-09-21T22:46:11.812Z,-60
2022-09-21T22:48:38.559Z,-60
2022-09-21T22:51:05.471Z,-59
2022-09-21T22:53:32.194Z,-60
2022-09-21T22:56:07.714Z,-60
2022-09-21T22:58:35.956Z,-59
2022-09-21T23:01:15.694Z,-59
2022-09-21T23:03:42.431Z,-60
2022-09-21T23:06:11.558Z,-60
2022-09-21T23:08:38.893Z,-60
2022-09-21T23:11:14.841Z,-60
2022-09-21T23:13:42.173Z,-60
2022-09-21T23:16:11.324Z,-60
2022-09-21T23:18:39.293Z,-60
2022-09-21T23:21:09.857Z,-60
2022-09-21T23:23:36.406Z,-60
2022-09-21T23:26:15.199Z,-60
2022-09-21T23:28:45.574Z,-60
2022-09-21T23:31:14.401Z,-60
2022-09-21T23:33:49.101Z,-59
2022-09-21T23:36:17.565Z,-60
2022-09-21T23:38:44.222Z,-60
2022-09-21T23:41:13.879Z,-60
2022-09-21T23:43:42.280Z,-60
2022-09-21T23:46:10.775Z,-60
2022-09-21T23:48:38.165Z,-60
2022-09-21T23:51:05.276Z,-60
2022-09-21T23:53:32.131Z,-60
2022-09-21T23:55:58.648Z,-60
2022-09-21T23:58:26.576Z,-60
